sensor_id;sensor_type;location;lat;lon;timestamp;P1;durP1;ratioP1;P2;durP2;ratioP2
20431;SDS011;10375;49.136;10.366;2022-11-25T00:01:13;20.63;;;6.50;;
20431;SDS011;10375;49.136;10.366;2022-11-25T00:03:40;25.73;;;6.53;;
20431;SDS011;10375;49.136;10.366;2022-11-25T00:06:09;34.00;;;6.43;;
20431;SDS011;10375;49.136;10.366;2022-11-25T00:08:39;39.73;;;7.87;;
20431;SDS011;10375;49.136;10.366;2022-11-25T00:11:07;34.20;;;6.47;;
20431;SDS011;10375;49.136;10.366;2022-11-25T00:13:35;37.70;;;7.00;;
20431;SDS011;10375;49.136;10.366;2022-11-25T00:16:07;25.17;;;7.40;;
20431;SDS011;10375;49.136;10.366;2022-11-25T00:18:36;19.03;;;6.60;;
20431;SDS011;10375;49.136;10.366;2022-11-25T00:21:04;28.43;;;6.90;;
20431;SDS011;10375;49.136;10.366;2022-11-25T00:23:37;24.03;;;6.13;;
20431;SDS011;10375;49.136;10.366;2022-11-25T00:26:07;28.03;;;7.23;;
20431;SDS011;10375;49.136;10.366;2022-11-25T00:28:38;24.27;;;7.83;;
20431;SDS011;10375;49.136;10.366;2022-11-25T00:31:07;38.40;;;7.37;;
20431;SDS011;10375;49.136;10.366;2022-11-25T00:33:39;22.60;;;6.93;;
20431;SDS011;10375;49.136;10.366;2022-11-25T00:36:09;24.97;;;5.87;;
20431;SDS011;10375;49.136;10.366;2022-11-25T00:38:46;15.63;;;5.73;;
20431;SDS011;10375;49.136;10.366;2022-11-25T00:41:17;8.77;;;5.40;;
20431;SDS011;10375;49.136;10.366;2022-11-25T00:44:03;6.33;;;5.13;;
20431;SDS011;10375;49.136;10.366;2022-11-25T00:46:49;8.97;;;5.93;;
20431;SDS011;10375;49.136;10.366;2022-11-25T00:49:15;22.57;;;5.87;;
20431;SDS011;10375;49.136;10.366;2022-11-25T00:51:42;16.13;;;6.67;;
20431;SDS011;10375;49.136;10.366;2022-11-25T00:54:09;11.60;;;6.30;;
20431;SDS011;10375;49.136;10.366;2022-11-25T00:56:37;21.50;;;5.80;;
20431;SDS011;10375;49.136;10.366;2022-11-25T00:59:04;39.27;;;7.37;;
20431;SDS011;10375;49.136;10.366;2022-11-25T01:01:31;27.10;;;6.90;;
20431;SDS011;10375;49.136;10.366;2022-11-25T01:03:59;10.93;;;6.53;;
20431;SDS011;10375;49.136;10.366;2022-11-25T01:06:26;13.43;;;6.33;;
20431;SDS011;10375;49.136;10.366;2022-11-25T01:08:53;10.80;;;6.00;;
20431;SDS011;10375;49.136;10.366;2022-11-25T01:11:21;9.77;;;6.27;;
20431;SDS011;10375;49.136;10.366;2022-11-25T01:13:49;10.07;;;6.73;;
20431;SDS011;10375;49.136;10.366;2022-11-25T01:16:26;30.13;;;7.17;;
20431;SDS011;10375;49.136;10.366;2022-11-25T01:18:53;23.03;;;5.93;;
20431;SDS011;10375;49.136;10.366;2022-11-25T01:21:24;38.77;;;7.40;;
20431;SDS011;10375;49.136;10.366;2022-11-25T01:23:53;36.87;;;6.47;;
20431;SDS011;10375;49.136;10.366;2022-11-25T01:26:22;19.70;;;6.23;;
20431;SDS011;10375;49.136;10.366;2022-11-25T01:29:00;15.57;;;6.17;;
20431;SDS011;10375;49.136;10.366;2022-11-25T01:31:29;21.97;;;6.50;;
20431;SDS011;10375;49.136;10.366;2022-11-25T01:34:01;11.47;;;6.77;;
20431;SDS011;10375;49.136;10.366;2022-11-25T01:36:42;6.90;;;5.30;;
20431;SDS011;10375;49.136;10.366;2022-11-25T01:39:12;7.87;;;5.60;;
20431;SDS011;10375;49.136;10.366;2022-11-25T01:41:44;10.27;;;6.17;;
20431;SDS011;10375;49.136;10.366;2022-11-25T01:54:37;9.40;;;5.77;;
20431;SDS011;10375;49.136;10.366;2022-11-25T01:57:13;6.70;;;5.33;;
20431;SDS011;10375;49.136;10.366;2022-11-25T02:00:03;8.00;;;5.57;;
20431;SDS011;10375;49.136;10.366;2022-11-25T02:02:33;9.33;;;6.03;;
20431;SDS011;10375;49.136;10.366;2022-11-25T02:05:06;9.00;;;6.77;;
20431;SDS011;10375;49.136;10.366;2022-11-25T02:07:36;8.20;;;6.20;;
20431;SDS011;10375;49.136;10.366;2022-11-25T02:10:06;12.30;;;6.63;;
20431;SDS011;10375;49.136;10.366;2022-11-25T02:12:39;12.50;;;6.20;;
20431;SDS011;10375;49.136;10.366;2022-11-25T02:15:09;8.23;;;5.93;;
20431;SDS011;10375;49.136;10.366;2022-11-25T02:17:36;10.40;;;6.10;;
20431;SDS011;10375;49.136;10.366;2022-11-25T02:20:05;17.17;;;6.27;;
20431;SDS011;10375;49.136;10.366;2022-11-25T02:25:32;9.03;;;6.10;;
20431;SDS011;10375;49.136;10.366;2022-11-25T02:28:01;8.90;;;5.63;;
20431;SDS011;10375;49.136;10.366;2022-11-25T02:30:32;8.87;;;6.23;;
20431;SDS011;10375;49.136;10.366;2022-11-25T02:33:00;11.27;;;5.93;;
20431;SDS011;10375;49.136;10.366;2022-11-25T02:35:29;10.87;;;6.03;;
20431;SDS011;10375;49.136;10.366;2022-11-25T02:38:04;13.63;;;6.10;;
20431;SDS011;10375;49.136;10.366;2022-11-25T02:43:24;7.47;;;5.47;;
20431;SDS011;10375;49.136;10.366;2022-11-25T02:45:57;10.90;;;5.40;;
20431;SDS011;10375;49.136;10.366;2022-11-25T02:48:29;8.10;;;5.63;;
20431;SDS011;10375;49.136;10.366;2022-11-25T02:51:19;10.07;;;5.67;;
20431;SDS011;10375;49.136;10.366;2022-11-25T02:53:47;9.00;;;5.77;;
20431;SDS011;10375;49.136;10.366;2022-11-25T02:56:15;12.53;;;5.83;;
20431;SDS011;10375;49.136;10.366;2022-11-25T02:58:45;11.07;;;6.33;;
20431;SDS011;10375;49.136;10.366;2022-11-25T03:01:12;16.47;;;5.57;;
20431;SDS011;10375;49.136;10.366;2022-11-25T03:03:39;9.57;;;5.50;;
20431;SDS011;10375;49.136;10.366;2022-11-25T03:06:06;12.90;;;5.67;;
20431;SDS011;10375;49.136;10.366;2022-11-25T03:08:34;6.43;;;5.47;;
20431;SDS011;10375;49.136;10.366;2022-11-25T03:11:02;15.07;;;5.50;;
20431;SDS011;10375;49.136;10.366;2022-11-25T03:13:29;9.13;;;4.93;;
20431;SDS011;10375;49.136;10.366;2022-11-25T03:15:56;10.27;;;5.13;;
20431;SDS011;10375;49.136;10.366;2022-11-25T03:18:23;11.00;;;6.23;;
20431;SDS011;10375;49.136;10.366;2022-11-25T03:20:51;9.97;;;5.40;;
20431;SDS011;10375;49.136;10.366;2022-11-25T03:23:19;20.73;;;7.07;;
20431;SDS011;10375;49.136;10.366;2022-11-25T03:25:47;11.77;;;6.40;;
20431;SDS011;10375;49.136;10.366;2022-11-25T03:28:14;11.73;;;7.07;;
20431;SDS011;10375;49.136;10.366;2022-11-25T03:30:41;15.27;;;6.87;;
20431;SDS011;10375;49.136;10.366;2022-11-25T03:33:08;15.23;;;7.77;;
20431;SDS011;10375;49.136;10.366;2022-11-25T03:35:35;12.73;;;6.87;;
20431;SDS011;10375;49.136;10.366;2022-11-25T03:38:02;18.33;;;7.73;;
20431;SDS011;10375;49.136;10.366;2022-11-25T03:40:29;25.57;;;7.37;;
20431;SDS011;10375;49.136;10.366;2022-11-25T03:42:56;20.57;;;7.00;;
20431;SDS011;10375;49.136;10.366;2022-11-25T03:45:23;19.70;;;7.40;;
20431;SDS011;10375;49.136;10.366;2022-11-25T03:47:50;27.37;;;7.50;;
20431;SDS011;10375;49.136;10.366;2022-11-25T03:50:17;28.30;;;8.30;;
20431;SDS011;10375;49.136;10.366;2022-11-25T03:52:44;41.97;;;8.40;;
20431;SDS011;10375;49.136;10.366;2022-11-25T03:55:11;21.60;;;9.73;;
20431;SDS011;10375;49.136;10.366;2022-11-25T03:57:38;23.73;;;7.90;;
20431;SDS011;10375;49.136;10.366;2022-11-25T04:00:06;30.43;;;8.77;;
20431;SDS011;10375;49.136;10.366;2022-11-25T04:02:34;45.23;;;8.03;;
20431;SDS011;10375;49.136;10.366;2022-11-25T04:05:01;72.77;;;8.97;;
20431;SDS011;10375;49.136;10.366;2022-11-25T04:07:30;31.57;;;8.77;;
20431;SDS011;10375;49.136;10.366;2022-11-25T04:09:58;40.73;;;9.13;;
20431;SDS011;10375;49.136;10.366;2022-11-25T04:12:24;62.37;;;9.60;;
20431;SDS011;10375;49.136;10.366;2022-11-25T04:15:10;43.57;;;8.53;;
20431;SDS011;10375;49.136;10.366;2022-11-25T04:17:37;37.80;;;8.20;;
20431;SDS011;10375;49.136;10.366;2022-11-25T04:20:04;44.47;;;9.57;;
20431;SDS011;10375;49.136;10.366;2022-11-25T04:22:32;53.60;;;9.70;;
20431;SDS011;10375;49.136;10.366;2022-11-25T04:24:59;30.83;;;7.93;;
20431;SDS011;10375;49.136;10.366;2022-11-25T04:27:25;66.63;;;9.97;;
20431;SDS011;10375;49.136;10.366;2022-11-25T04:29:53;35.20;;;9.87;;
20431;SDS011;10375;49.136;10.366;2022-11-25T04:32:19;40.20;;;9.50;;
20431;SDS011;10375;49.136;10.366;2022-11-25T04:34:47;30.53;;;9.83;;
20431;SDS011;10375;49.136;10.366;2022-11-25T04:37:14;53.33;;;11.00;;
20431;SDS011;10375;49.136;10.366;2022-11-25T04:39:41;56.67;;;10.97;;
20431;SDS011;10375;49.136;10.366;2022-11-25T04:42:08;59.23;;;11.00;;
20431;SDS011;10375;49.136;10.366;2022-11-25T04:44:53;62.33;;;11.20;;
20431;SDS011;10375;49.136;10.366;2022-11-25T04:47:40;90.93;;;11.53;;
20431;SDS011;10375;49.136;10.366;2022-11-25T04:50:11;68.33;;;11.20;;
20431;SDS011;10375;49.136;10.366;2022-11-25T04:52:40;96.37;;;12.10;;
20431;SDS011;10375;49.136;10.366;2022-11-25T04:55:07;64.60;;;11.90;;
20431;SDS011;10375;49.136;10.366;2022-11-25T04:57:35;59.03;;;12.13;;
20431;SDS011;10375;49.136;10.366;2022-11-25T05:00:02;65.13;;;12.80;;
20431;SDS011;10375;49.136;10.366;2022-11-25T05:02:30;41.40;;;11.57;;
20431;SDS011;10375;49.136;10.366;2022-11-25T05:04:57;38.53;;;12.13;;
20431;SDS011;10375;49.136;10.366;2022-11-25T05:07:25;91.10;;;14.47;;
20431;SDS011;10375;49.136;10.366;2022-11-25T05:09:54;33.60;;;12.37;;
20431;SDS011;10375;49.136;10.366;2022-11-25T05:12:23;80.63;;;13.73;;
20431;SDS011;10375;49.136;10.366;2022-11-25T05:14:53;58.97;;;13.47;;
20431;SDS011;10375;49.136;10.366;2022-11-25T05:17:21;44.07;;;12.13;;
20431;SDS011;10375;49.136;10.366;2022-11-25T05:19:51;52.67;;;13.40;;
20431;SDS011;10375;49.136;10.366;2022-11-25T05:22:20;48.67;;;13.03;;
20431;SDS011;10375;49.136;10.366;2022-11-25T05:24:49;51.87;;;13.20;;
20431;SDS011;10375;49.136;10.366;2022-11-25T05:27:16;53.50;;;12.83;;
20431;SDS011;10375;49.136;10.366;2022-11-25T05:29:43;35.73;;;13.60;;
20431;SDS011;10375;49.136;10.366;2022-11-25T05:32:10;62.60;;;15.37;;
20431;SDS011;10375;49.136;10.366;2022-11-25T05:34:40;56.47;;;13.20;;
20431;SDS011;10375;49.136;10.366;2022-11-25T05:37:08;89.70;;;13.80;;
20431;SDS011;10375;49.136;10.366;2022-11-25T05:39:38;47.53;;;12.50;;
20431;SDS011;10375;49.136;10.366;2022-11-25T05:42:05;51.83;;;14.57;;
20431;SDS011;10375;49.136;10.366;2022-11-25T05:44:32;71.23;;;14.50;;
20431;SDS011;10375;49.136;10.366;2022-11-25T05:46:59;52.20;;;13.27;;
20431;SDS011;10375;49.136;10.366;2022-11-25T05:49:27;75.03;;;14.20;;
20431;SDS011;10375;49.136;10.366;2022-11-25T05:51:54;39.23;;;13.20;;
20431;SDS011;10375;49.136;10.366;2022-11-25T05:54:21;44.93;;;13.73;;
20431;SDS011;10375;49.136;10.366;2022-11-25T05:56:49;52.53;;;13.57;;
20431;SDS011;10375;49.136;10.366;2022-11-25T05:59:16;34.53;;;12.37;;
20431;SDS011;10375;49.136;10.366;2022-11-25T06:01:43;49.60;;;12.90;;
20431;SDS011;10375;49.136;10.366;2022-11-25T06:04:10;43.50;;;12.87;;
20431;SDS011;10375;49.136;10.366;2022-11-25T06:06:38;53.37;;;13.30;;
20431;SDS011;10375;49.136;10.366;2022-11-25T06:09:05;101.07;;;14.17;;
20431;SDS011;10375;49.136;10.366;2022-11-25T06:11:33;93.83;;;16.07;;
20431;SDS011;10375;49.136;10.366;2022-11-25T06:14:00;64.90;;;13.93;;
20431;SDS011;10375;49.136;10.366;2022-11-25T06:16:27;40.97;;;13.30;;
20431;SDS011;10375;49.136;10.366;2022-11-25T06:18:55;51.37;;;14.33;;
20431;SDS011;10375;49.136;10.366;2022-11-25T06:21:22;51.93;;;13.53;;
20431;SDS011;10375;49.136;10.366;2022-11-25T06:23:49;69.67;;;14.03;;
20431;SDS011;10375;49.136;10.366;2022-11-25T06:26:22;48.33;;;12.47;;
20431;SDS011;10375;49.136;10.366;2022-11-25T06:28:51;44.90;;;13.67;;
20431;SDS011;10375;49.136;10.366;2022-11-25T06:31:22;42.13;;;14.30;;
20431;SDS011;10375;49.136;10.366;2022-11-25T06:33:51;29.43;;;14.30;;
20431;SDS011;10375;49.136;10.366;2022-11-25T06:36:19;27.93;;;13.83;;
20431;SDS011;10375;49.136;10.366;2022-11-25T06:41:19;47.97;;;14.80;;
20431;SDS011;10375;49.136;10.366;2022-11-25T06:43:47;213.20;;;23.17;;
20431;SDS011;10375;49.136;10.366;2022-11-25T06:46:16;75.97;;;17.37;;
20431;SDS011;10375;49.136;10.366;2022-11-25T06:48:50;76.37;;;15.93;;
20431;SDS011;10375;49.136;10.366;2022-11-25T06:51:18;28.07;;;14.57;;
20431;SDS011;10375;49.136;10.366;2022-11-25T06:53:45;17.50;;;12.60;;
20431;SDS011;10375;49.136;10.366;2022-11-25T06:56:13;36.07;;;14.63;;
20431;SDS011;10375;49.136;10.366;2022-11-25T06:58:42;17.30;;;13.33;;
20431;SDS011;10375;49.136;10.366;2022-11-25T07:01:14;22.83;;;13.37;;
20431;SDS011;10375;49.136;10.366;2022-11-25T07:03:46;63.53;;;16.70;;
20431;SDS011;10375;49.136;10.366;2022-11-25T07:06:14;23.93;;;14.07;;
20431;SDS011;10375;49.136;10.366;2022-11-25T07:08:44;32.20;;;15.47;;
20431;SDS011;10375;49.136;10.366;2022-11-25T07:13:39;30.17;;;15.53;;
20431;SDS011;10375;49.136;10.366;2022-11-25T07:16:07;23.27;;;15.70;;
20431;SDS011;10375;49.136;10.366;2022-11-25T07:18:36;33.90;;;14.43;;
20431;SDS011;10375;49.136;10.366;2022-11-25T07:21:08;20.83;;;14.40;;
20431;SDS011;10375;49.136;10.366;2022-11-25T07:23:42;27.60;;;15.03;;
20431;SDS011;10375;49.136;10.366;2022-11-25T07:26:12;30.07;;;14.93;;
20431;SDS011;10375;49.136;10.366;2022-11-25T07:28:41;25.93;;;14.10;;
20431;SDS011;10375;49.136;10.366;2022-11-25T07:31:15;23.03;;;13.13;;
20431;SDS011;10375;49.136;10.366;2022-11-25T07:34:23;27.90;;;14.47;;
20431;SDS011;10375;49.136;10.366;2022-11-25T07:36:46;25.07;;;14.93;;
20431;SDS011;10375;49.136;10.366;2022-11-25T07:39:15;29.17;;;14.80;;
20431;SDS011;10375;49.136;10.366;2022-11-25T07:41:53;27.00;;;13.80;;
20431;SDS011;10375;49.136;10.366;2022-11-25T07:44:20;20.67;;;12.20;;
20431;SDS011;10375;49.136;10.366;2022-11-25T07:46:48;18.27;;;12.30;;
20431;SDS011;10375;49.136;10.366;2022-11-25T07:49:16;16.67;;;11.97;;
20431;SDS011;10375;49.136;10.366;2022-11-25T07:51:50;26.33;;;12.63;;
20431;SDS011;10375;49.136;10.366;2022-11-25T07:54:19;23.80;;;13.73;;
20431;SDS011;10375;49.136;10.366;2022-11-25T07:56:47;19.70;;;13.43;;
20431;SDS011;10375;49.136;10.366;2022-11-25T07:59:16;28.87;;;14.27;;
20431;SDS011;10375;49.136;10.366;2022-11-25T08:01:47;17.43;;;12.83;;
20431;SDS011;10375;49.136;10.366;2022-11-25T08:04:16;21.63;;;13.93;;
20431;SDS011;10375;49.136;10.366;2022-11-25T08:06:47;18.00;;;12.93;;
20431;SDS011;10375;49.136;10.366;2022-11-25T08:09:17;21.17;;;12.50;;
20431;SDS011;10375;49.136;10.366;2022-11-25T08:11:46;24.40;;;13.53;;
20431;SDS011;10375;49.136;10.366;2022-11-25T08:14:14;27.87;;;13.20;;
20431;SDS011;10375;49.136;10.366;2022-11-25T08:16:42;31.63;;;14.23;;
20431;SDS011;10375;49.136;10.366;2022-11-25T08:19:10;33.03;;;14.20;;
20431;SDS011;10375;49.136;10.366;2022-11-25T08:21:39;35.93;;;14.33;;
20431;SDS011;10375;49.136;10.366;2022-11-25T08:24:06;28.70;;;12.80;;
20431;SDS011;10375;49.136;10.366;2022-11-25T08:26:34;21.90;;;11.73;;
20431;SDS011;10375;49.136;10.366;2022-11-25T08:29:05;33.20;;;10.67;;
20431;SDS011;10375;49.136;10.366;2022-11-25T08:31:34;19.90;;;9.97;;
20431;SDS011;10375;49.136;10.366;2022-11-25T08:34:03;18.00;;;9.47;;
20431;SDS011;10375;49.136;10.366;2022-11-25T08:36:32;10.47;;;8.73;;
20431;SDS011;10375;49.136;10.366;2022-11-25T08:39:03;29.63;;;10.23;;
20431;SDS011;10375;49.136;10.366;2022-11-25T08:41:52;18.17;;;13.00;;
20431;SDS011;10375;49.136;10.366;2022-11-25T08:44:19;32.73;;;9.47;;
20431;SDS011;10375;49.136;10.366;2022-11-25T08:46:46;12.67;;;8.00;;
20431;SDS011;10375;49.136;10.366;2022-11-25T08:49:13;33.50;;;10.33;;
20431;SDS011;10375;49.136;10.366;2022-11-25T08:51:42;24.83;;;9.73;;
20431;SDS011;10375;49.136;10.366;2022-11-25T08:54:09;11.67;;;7.63;;
20431;SDS011;10375;49.136;10.366;2022-11-25T08:56:36;10.57;;;6.73;;
20431;SDS011;10375;49.136;10.366;2022-11-25T08:59:04;11.60;;;7.07;;
20431;SDS011;10375;49.136;10.366;2022-11-25T09:01:31;8.93;;;5.80;;
20431;SDS011;10375;49.136;10.366;2022-11-25T09:03:58;7.67;;;5.07;;
20431;SDS011;10375;49.136;10.366;2022-11-25T09:06:26;11.03;;;5.70;;
20431;SDS011;10375;49.136;10.366;2022-11-25T09:08:57;10.50;;;6.40;;
20431;SDS011;10375;49.136;10.366;2022-11-25T09:11:24;11.63;;;6.17;;
20431;SDS011;10375;49.136;10.366;2022-11-25T09:13:52;9.47;;;5.70;;
20431;SDS011;10375;49.136;10.366;2022-11-25T09:16:19;11.93;;;5.67;;
20431;SDS011;10375;49.136;10.366;2022-11-25T09:18:46;23.33;;;6.03;;
20431;SDS011;10375;49.136;10.366;2022-11-25T09:21:21;7.50;;;5.10;;
20431;SDS011;10375;49.136;10.366;2022-11-25T09:23:50;6.83;;;5.27;;
20431;SDS011;10375;49.136;10.366;2022-11-25T09:26:26;18.27;;;6.17;;
20431;SDS011;10375;49.136;10.366;2022-11-25T09:28:55;6.03;;;5.43;;
20431;SDS011;10375;49.136;10.366;2022-11-25T09:31:23;6.77;;;4.47;;
20431;SDS011;10375;49.136;10.366;2022-11-25T09:33:50;8.53;;;5.40;;
20431;SDS011;10375;49.136;10.366;2022-11-25T09:36:17;7.50;;;5.57;;
20431;SDS011;10375;49.136;10.366;2022-11-25T09:38:46;13.23;;;6.13;;
20431;SDS011;10375;49.136;10.366;2022-11-25T09:55:35;11.57;;;5.50;;
20431;SDS011;10375;49.136;10.366;2022-11-25T10:00:47;17.53;;;6.13;;
20431;SDS011;10375;49.136;10.366;2022-11-25T10:06:20;167.33;;;15.23;;
20431;SDS011;10375;49.136;10.366;2022-11-25T10:08:54;24.57;;;6.33;;
20431;SDS011;10375;49.136;10.366;2022-11-25T10:14:31;7.63;;;4.93;;
20431;SDS011;10375;49.136;10.366;2022-11-25T10:24:52;5.47;;;4.57;;
20431;SDS011;10375;49.136;10.366;2022-11-25T10:27:26;35.13;;;5.97;;
20431;SDS011;10375;49.136;10.366;2022-11-25T10:35:37;7.17;;;4.20;;
20431;SDS011;10375;49.136;10.366;2022-11-25T10:38:15;7.47;;;4.70;;
20431;SDS011;10375;49.136;10.366;2022-11-25T10:40:47;5.70;;;4.70;;
20431;SDS011;10375;49.136;10.366;2022-11-25T10:43:16;5.47;;;4.20;;
20431;SDS011;10375;49.136;10.366;2022-11-25T10:46:27;7.07;;;4.93;;
20431;SDS011;10375;49.136;10.366;2022-11-25T10:48:42;12.63;;;5.10;;
20431;SDS011;10375;49.136;10.366;2022-11-25T10:56:57;11.53;;;5.40;;
20431;SDS011;10375;49.136;10.366;2022-11-25T10:59:36;8.17;;;5.10;;
20431;SDS011;10375;49.136;10.366;2022-11-25T11:02:12;11.47;;;5.53;;
20431;SDS011;10375;49.136;10.366;2022-11-25T11:04:53;10.07;;;5.43;;
20431;SDS011;10375;49.136;10.366;2022-11-25T11:07:36;7.60;;;5.40;;
20431;SDS011;10375;49.136;10.366;2022-11-25T11:12:41;9.50;;;5.70;;
20431;SDS011;10375;49.136;10.366;2022-11-25T11:15:30;7.83;;;4.67;;
20431;SDS011;10375;49.136;10.366;2022-11-25T11:18:17;8.07;;;5.27;;
20431;SDS011;10375;49.136;10.366;2022-11-25T11:20:53;8.70;;;5.63;;
20431;SDS011;10375;49.136;10.366;2022-11-25T11:23:22;9.03;;;5.43;;
20431;SDS011;10375;49.136;10.366;2022-11-25T11:26:03;10.80;;;5.57;;
20431;SDS011;10375;49.136;10.366;2022-11-25T11:31:07;20.97;;;5.87;;
20431;SDS011;10375;49.136;10.366;2022-11-25T11:41:51;9.97;;;4.97;;
20431;SDS011;10375;49.136;10.366;2022-11-25T11:44:46;7.53;;;5.70;;
20431;SDS011;10375;49.136;10.366;2022-11-25T11:50:13;10.00;;;4.37;;
20431;SDS011;10375;49.136;10.366;2022-11-25T11:52:53;10.53;;;5.03;;
20431;SDS011;10375;49.136;10.366;2022-11-25T12:07:02;30.57;;;17.40;;
20431;SDS011;10375;49.136;10.366;2022-11-25T12:09:42;59.00;;;24.87;;
20431;SDS011;10375;49.136;10.366;2022-11-25T12:12:26;25.47;;;14.47;;
20431;SDS011;10375;49.136;10.366;2022-11-25T12:15:09;28.60;;;16.70;;
20431;SDS011;10375;49.136;10.366;2022-11-25T12:17:44;25.20;;;14.30;;
20431;SDS011;10375;49.136;10.366;2022-11-25T12:25:56;22.40;;;5.23;;
20431;SDS011;10375;49.136;10.366;2022-11-25T12:28:29;8.70;;;3.80;;
20431;SDS011;10375;49.136;10.366;2022-11-25T12:31:05;12.93;;;4.53;;
20431;SDS011;10375;49.136;10.366;2022-11-25T12:36:19;7.33;;;3.47;;
20431;SDS011;10375;49.136;10.366;2022-11-25T12:41:29;8.53;;;3.77;;
20431;SDS011;10375;49.136;10.366;2022-11-25T12:44:07;23.83;;;5.20;;
20431;SDS011;10375;49.136;10.366;2022-11-25T12:49:18;20.50;;;4.30;;
20431;SDS011;10375;49.136;10.366;2022-11-25T13:15:05;6.40;;;2.60;;
20431;SDS011;10375;49.136;10.366;2022-11-25T13:17:46;6.03;;;3.20;;
20431;SDS011;10375;49.136;10.366;2022-11-25T13:25:31;9.03;;;3.10;;
20431;SDS011;10375;49.136;10.366;2022-11-25T13:27:59;9.10;;;3.13;;
20431;SDS011;10375;49.136;10.366;2022-11-25T13:35:47;4.57;;;2.30;;
20431;SDS011;10375;49.136;10.366;2022-11-25T13:40:56;6.63;;;2.03;;
20431;SDS011;10375;49.136;10.366;2022-11-25T13:43:23;7.73;;;2.73;;
20431;SDS011;10375;49.136;10.366;2022-11-25T13:45:50;6.27;;;2.30;;
20431;SDS011;10375;49.136;10.366;2022-11-25T13:48:22;9.50;;;2.50;;
20431;SDS011;10375;49.136;10.366;2022-11-25T13:50:50;13.30;;;2.83;;
20431;SDS011;10375;49.136;10.366;2022-11-25T13:53:37;7.23;;;2.60;;
20431;SDS011;10375;49.136;10.366;2022-11-25T13:56:13;6.40;;;2.53;;
20431;SDS011;10375;49.136;10.366;2022-11-25T14:01:36;11.50;;;2.80;;
20431;SDS011;10375;49.136;10.366;2022-11-25T14:04:05;13.30;;;3.57;;
20431;SDS011;10375;49.136;10.366;2022-11-25T14:09:20;5.70;;;2.87;;
20431;SDS011;10375;49.136;10.366;2022-11-25T14:12:16;11.23;;;2.80;;
20431;SDS011;10375;49.136;10.366;2022-11-25T14:26:35;6.73;;;3.47;;
20431;SDS011;10375;49.136;10.366;2022-11-25T14:29:44;15.27;;;4.10;;
20431;SDS011;10375;49.136;10.366;2022-11-25T14:32:28;11.30;;;4.50;;
20431;SDS011;10375;49.136;10.366;2022-11-25T14:37:58;10.10;;;3.90;;
20431;SDS011;10375;49.136;10.366;2022-11-25T14:43:10;8.97;;;4.33;;
20431;SDS011;10375;49.136;10.366;2022-11-25T14:45:44;8.10;;;4.37;;
20431;SDS011;10375;49.136;10.366;2022-11-25T14:48:18;8.27;;;4.37;;
20431;SDS011;10375;49.136;10.366;2022-11-25T14:53:24;11.03;;;4.60;;
20431;SDS011;10375;49.136;10.366;2022-11-25T14:55:53;10.70;;;4.13;;
20431;SDS011;10375;49.136;10.366;2022-11-25T14:58:25;12.83;;;4.90;;
20431;SDS011;10375;49.136;10.366;2022-11-25T15:01:15;8.07;;;5.67;;
20431;SDS011;10375;49.136;10.366;2022-11-25T15:03:47;18.20;;;5.60;;
20431;SDS011;10375;49.136;10.366;2022-11-25T15:06:16;9.37;;;5.03;;
20431;SDS011;10375;49.136;10.366;2022-11-25T15:08:54;9.87;;;5.80;;
20431;SDS011;10375;49.136;10.366;2022-11-25T15:11:24;37.47;;;7.03;;
20431;SDS011;10375;49.136;10.366;2022-11-25T15:14:02;17.97;;;6.90;;
20431;SDS011;10375;49.136;10.366;2022-11-25T15:16:35;20.50;;;6.37;;
20431;SDS011;10375;49.136;10.366;2022-11-25T15:19:05;32.47;;;8.03;;
20431;SDS011;10375;49.136;10.366;2022-11-25T15:21:41;13.37;;;6.27;;
20431;SDS011;10375;49.136;10.366;2022-11-25T15:24:30;9.63;;;5.53;;
20431;SDS011;10375;49.136;10.366;2022-11-25T15:27:15;15.83;;;6.30;;
20431;SDS011;10375;49.136;10.366;2022-11-25T15:29:51;12.73;;;6.47;;
20431;SDS011;10375;49.136;10.366;2022-11-25T15:32:21;12.03;;;7.13;;
20431;SDS011;10375;49.136;10.366;2022-11-25T15:34:52;20.80;;;8.63;;
20431;SDS011;10375;49.136;10.366;2022-11-25T15:37:22;20.27;;;9.33;;
20431;SDS011;10375;49.136;10.366;2022-11-25T15:39:50;34.00;;;11.27;;
20431;SDS011;10375;49.136;10.366;2022-11-25T15:42:55;24.63;;;10.40;;
20431;SDS011;10375;49.136;10.366;2022-11-25T15:45:24;23.83;;;11.37;;
20431;SDS011;10375;49.136;10.366;2022-11-25T15:47:55;28.47;;;11.43;;
20431;SDS011;10375;49.136;10.366;2022-11-25T15:50:24;18.17;;;10.90;;
20431;SDS011;10375;49.136;10.366;2022-11-25T15:52:53;21.67;;;11.83;;
20431;SDS011;10375;49.136;10.366;2022-11-25T16:00:38;24.90;;;13.37;;
20431;SDS011;10375;49.136;10.366;2022-11-25T16:03:18;20.73;;;13.67;;
20431;SDS011;10375;49.136;10.366;2022-11-25T16:05:56;24.23;;;13.77;;
20431;SDS011;10375;49.136;10.366;2022-11-25T16:11:10;25.43;;;13.57;;
20431;SDS011;10375;49.136;10.366;2022-11-25T16:13:42;16.80;;;12.00;;
20431;SDS011;10375;49.136;10.366;2022-11-25T16:16:11;25.90;;;13.13;;
20431;SDS011;10375;49.136;10.366;2022-11-25T16:18:52;21.37;;;12.87;;
20431;SDS011;10375;49.136;10.366;2022-11-25T16:29:01;20.63;;;13.87;;
20431;SDS011;10375;49.136;10.366;2022-11-25T16:31:39;20.10;;;14.70;;
20431;SDS011;10375;49.136;10.366;2022-11-25T16:34:17;21.53;;;14.73;;
20431;SDS011;10375;49.136;10.366;2022-11-25T16:36:45;21.37;;;13.00;;
20431;SDS011;10375;49.136;10.366;2022-11-25T16:39:12;19.73;;;12.67;;
20431;SDS011;10375;49.136;10.366;2022-11-25T16:41:39;21.13;;;13.47;;
20431;SDS011;10375;49.136;10.366;2022-11-25T16:44:17;23.20;;;14.47;;
20431;SDS011;10375;49.136;10.366;2022-11-25T16:46:46;20.93;;;13.63;;
20431;SDS011;10375;49.136;10.366;2022-11-25T16:49:14;27.30;;;14.17;;
20431;SDS011;10375;49.136;10.366;2022-11-25T16:51:43;18.30;;;14.37;;
20431;SDS011;10375;49.136;10.366;2022-11-25T16:54:10;33.17;;;16.33;;
20431;SDS011;10375;49.136;10.366;2022-11-25T16:56:38;22.27;;;13.70;;
20431;SDS011;10375;49.136;10.366;2022-11-25T16:59:40;18.33;;;13.30;;
20431;SDS011;10375;49.136;10.366;2022-11-25T17:02:20;25.60;;;15.80;;
20431;SDS011;10375;49.136;10.366;2022-11-25T17:04:47;24.67;;;15.37;;
20431;SDS011;10375;49.136;10.366;2022-11-25T17:07:16;22.20;;;14.67;;
20431;SDS011;10375;49.136;10.366;2022-11-25T17:10:00;27.40;;;13.43;;
20431;SDS011;10375;49.136;10.366;2022-11-25T17:12:28;28.40;;;14.57;;
20431;SDS011;10375;49.136;10.366;2022-11-25T17:14:58;30.03;;;13.43;;
20431;SDS011;10375;49.136;10.366;2022-11-25T17:17:26;22.83;;;12.93;;
20431;SDS011;10375;49.136;10.366;2022-11-25T17:19:54;30.73;;;14.07;;
20431;SDS011;10375;49.136;10.366;2022-11-25T17:22:22;25.23;;;14.30;;
20431;SDS011;10375;49.136;10.366;2022-11-25T17:24:51;20.67;;;13.57;;
20431;SDS011;10375;49.136;10.366;2022-11-25T17:27:28;28.87;;;13.67;;
20431;SDS011;10375;49.136;10.366;2022-11-25T17:29:58;28.87;;;13.63;;
20431;SDS011;10375;49.136;10.366;2022-11-25T17:32:26;21.67;;;14.57;;
20431;SDS011;10375;49.136;10.366;2022-11-25T17:34:54;21.70;;;13.33;;
20431;SDS011;10375;49.136;10.366;2022-11-25T17:37:21;28.83;;;14.63;;
20431;SDS011;10375;49.136;10.366;2022-11-25T17:39:50;18.70;;;12.93;;
20431;SDS011;10375;49.136;10.366;2022-11-25T17:42:22;27.13;;;15.30;;
20431;SDS011;10375;49.136;10.366;2022-11-25T17:44:55;33.07;;;14.97;;